Time;durP1;ratioP1;P1;durP2;ratioP2;P2;SDS_P1;SDS_P2;PMS_P1;PMS_P2;Temp;Humidity;BMP_temperature;BMP_pressure;BME280_temperature;BME280_humidity;BME280_pressure;Samples;Min_cycle;Max_cycle;Signal;HPM_P1;HPM_P2
2022/10/30 00:01:17;;;;;;;58.45;20.17;;;;;;;;;;4975096;28;20033;-79
2022/10/30 00:03:43;;;;;;;57.33;22.80;;;;;;;;;;4978186;28;20070;-78
2022/10/30 00:06:09;;;;;;;61.67;22.13;;;;;;;;;;4975977;28;20026;-78
2022/10/30 00:08:36;;;;;;;71.45;21.40;;;;;;;;;;4976187;28;20478;-78
2022/10/30 00:11:09;;;;;;;63.17;22.30;;;;;;;;;;4972488;28;20464;-77
2022/10/30 00:13:35;;;;;;;51.05;20.67;;;;;;;;;;4976656;28;20027;-79
2022/10/30 00:16:03;;;;;;;59.67;21.40;;;;;;;;;;4980250;28;20124;-78
2022/10/30 00:18:29;;;;;;;56.97;21.13;;;;;;;;;;4978805;28;20133;-80
2022/10/30 00:20:54;;;;;;;49.30;19.58;;;;;;;;;;4970773;28;20519;-78
2022/10/30 00:23:20;;;;;;;50.95;20.23;;;;;;;;;;4973379;28;20094;-79
2022/10/30 00:25:47;;;;;;;54.47;21.15;;;;;;;;;;4976972;28;20027;-78
2022/10/30 00:28:13;;;;;;;55.65;21.58;;;;;;;;;;4980344;28;20490;-77
2022/10/30 00:30:39;;;;;;;60.63;23.33;;;;;;;;;;4974605;28;20070;-78
2022/10/30 00:33:05;;;;;;;58.45;21.55;;;;;;;;;;4976074;28;20364;-78
2022/10/30 00:35:31;;;;;;;58.17;22.00;;;;;;;;;;4977342;28;20398;-78
2022/10/30 00:37:57;;;;;;;62.15;19.92;;;;;;;;;;4974787;28;20031;-77
2022/10/30 00:40:23;;;;;;;51.42;20.90;;;;;;;;;;4973443;28;20114;-78
2022/10/30 00:42:49;;;;;;;50.35;20.27;;;;;;;;;;4975771;28;20050;-78
2022/10/30 00:45:16;;;;;;;56.10;22.25;;;;;;;;;;4976757;28;20205;-78
2022/10/30 00:47:44;;;;;;;51.47;20.65;;;;;;;;;;4974683;28;20019;-78
2022/10/30 00:50:16;;;;;;;66.85;22.25;;;;;;;;;;4972261;28;20114;-78
2022/10/30 00:52:54;;;;;;;50.17;21.52;;;;;;;;;;4974243;28;20487;-77
2022/10/30 00:55:26;;;;;;;55.03;21.20;;;;;;;;;;4973438;28;20041;-78
2022/10/30 00:57:52;;;;;;;;;;;;;;;;;;4975150;28;20088;-79
2022/10/30 01:00:20;;;;;;;43.83;17.23;;;;;;;;;;4977779;28;20007;-79
2022/10/30 01:02:46;;;;;;;52.92;19.42;;;;;;;;;;4977022;28;20019;-79
2022/10/30 01:05:15;;;;;;;55.50;20.63;;;;;;;;;;4978748;28;20811;-77
2022/10/30 01:07:41;;;;;;;48.20;20.08;;;;;;;;;;4974203;28;20147;-79
2022/10/30 01:10:07;;;;;;;59.92;21.40;;;;;;;;;;4977091;28;20044;-77
2022/10/30 01:12:33;;;;;;;47.03;20.08;;;;;;;;;;4976875;28;20033;-78
2022/10/30 01:15:00;;;;;;;51.70;20.25;;;;;;;;;;4976871;28;20494;-79
2022/10/30 01:17:35;;;;;;;55.05;18.02;;;;;;;;;;4978499;28;20035;-79
2022/10/30 01:20:14;;;;;;;43.03;18.75;;;;;;;;;;4976934;28;20033;-78
2022/10/30 01:22:59;;;;;;;40.40;16.88;;;;;;;;;;4978083;28;20394;-78
2022/10/30 01:25:34;;;;;;;36.08;15.73;;;;;;;;;;4978657;28;20031;-78
2022/10/30 01:28:12;;;;;;;32.65;14.63;;;;;;;;;;4977220;28;20571;-78
2022/10/30 01:30:57;;;;;;;32.42;15.07;;;;;;;;;;4973027;28;20386;-78
2022/10/30 01:33:41;;;;;;;33.08;15.20;;;;;;;;;;4977628;28;20110;-78
2022/10/30 01:36:07;;;;;;;34.80;14.32;;;;;;;;;;4975444;28;20056;-78
2022/10/30 01:38:43;;;;;;;30.40;14.45;;;;;;;;;;4977042;28;20486;-78
2022/10/30 01:41:09;;;;;;;34.78;14.98;;;;;;;;;;4976500;28;20089;-79
2022/10/30 01:43:36;;;;;;;28.52;13.23;;;;;;;;;;4978902;28;20319;-79
2022/10/30 01:46:38;;;;;;;27.38;14.30;;;;;;;;;;4977809;28;20113;-78
2022/10/30 01:49:23;;;;;;;27.58;13.25;;;;;;;;;;4946106;29;20028;-78
2022/10/30 01:52:04;;;;;;;25.23;12.82;;;;;;;;;;4941188;29;20089;-77
2022/10/30 01:54:30;;;;;;;28.48;13.38;;;;;;;;;;4950057;29;20036;-78
2022/10/30 01:56:56;;;;;;;25.60;12.00;;;;;;;;;;4953193;29;20042;-77
2022/10/30 01:59:25;;;;;;;27.15;13.48;;;;;;;;;;4952220;29;20067;-77
2022/10/30 02:01:52;;;;;;;24.70;12.77;;;;;;;;;;4947647;29;20032;-77
2022/10/30 02:04:19;;;;;;;25.35;13.02;;;;;;;;;;4949625;29;20071;-77
2022/10/30 02:06:45;;;;;;;22.55;11.52;;;;;;;;;;4938593;29;20559;-77
2022/10/30 02:09:11;;;;;;;29.83;13.25;;;;;;;;;;4937987;29;20586;-77
2022/10/30 02:11:38;;;;;;;26.40;13.20;;;;;;;;;;4931649;29;20488;-77
2022/10/30 02:14:05;;;;;;;26.88;12.50;;;;;;;;;;4937464;29;20032;-79
2022/10/30 02:16:33;;;;;;;27.05;11.10;;;;;;;;;;4922694;29;20044;-78
2022/10/30 02:19:00;;;;;;;26.45;12.68;;;;;;;;;;4937294;29;20076;-79
2022/10/30 02:21:26;;;;;;;25.15;12.07;;;;;;;;;;4927875;29;20044;-79
2022/10/30 02:23:52;;;;;;;23.77;11.27;;;;;;;;;;4952582;29;20035;-77
2022/10/30 02:26:18;;;;;;;24.83;12.40;;;;;;;;;;4964285;28;20491;-77
2022/10/30 02:28:44;;;;;;;24.40;11.48;;;;;;;;;;4973946;28;20058;-78
2022/10/30 02:31:10;;;;;;;22.58;11.52;;;;;;;;;;4972499;28;20093;-78
2022/10/30 02:33:36;;;;;;;25.20;12.10;;;;;;;;;;4968683;28;20027;-77
2022/10/30 02:36:02;;;;;;;30.52;13.52;;;;;;;;;;4972067;28;20038;-77
2022/10/30 02:38:29;;;;;;;28.55;13.35;;;;;;;;;;4972473;28;20026;-77
2022/10/30 02:40:56;;;;;;;23.13;12.40;;;;;;;;;;4972555;28;20050;-77
2022/10/30 02:43:22;;;;;;;27.45;12.30;;;;;;;;;;4972517;28;20073;-77
2022/10/30 02:45:51;;;;;;;23.60;11.38;;;;;;;;;;4971915;28;20022;-78
2022/10/30 02:48:17;;;;;;;21.38;11.60;;;;;;;;;;4969065;28;20051;-77
2022/10/30 02:50:43;;;;;;;25.45;11.85;;;;;;;;;;4962835;28;20419;-77
2022/10/30 02:53:09;;;;;;;23.83;11.85;;;;;;;;;;4972624;28;20035;-77
2022/10/30 02:55:35;;;;;;;25.23;13.05;;;;;;;;;;4972087;28;20035;-79
2022/10/30 02:58:01;;;;;;;31.48;13.60;;;;;;;;;;4977288;28;20030;-79
2022/10/30 03:00:27;;;;;;;29.30;13.82;;;;;;;;;;4976735;28;20411;-78
2022/10/30 03:02:54;;;;;;;27.60;13.77;;;;;;;;;;4976278;28;20098;-79
2022/10/30 03:05:21;;;;;;;28.65;15.05;;;;;;;;;;4975846;28;20029;-79
2022/10/30 03:07:47;;;;;;;30.70;14.73;;;;;;;;;;4977404;28;20526;-79
2022/10/30 03:10:13;;;;;;;29.35;13.20;;;;;;;;;;4973335;28;20026;-77
2022/10/30 03:12:39;;;;;;;27.02;12.18;;;;;;;;;;4972352;28;20045;-77
2022/10/30 03:15:06;;;;;;;23.45;12.60;;;;;;;;;;4972214;28;20031;-77
2022/10/30 03:17:32;;;;;;;24.95;12.35;;;;;;;;;;4971174;28;20090;-77
2022/10/30 03:19:58;;;;;;;23.23;11.95;;;;;;;;;;4963633;28;20037;-77
2022/10/30 03:22:24;;;;;;;27.40;12.88;;;;;;;;;;4972271;28;20035;-77
2022/10/30 03:24:50;;;;;;;29.85;13.20;;;;;;;;;;4972241;28;20394;-77
2022/10/30 03:27:16;;;;;;;28.35;13.25;;;;;;;;;;4971372;28;20023;-77
2022/10/30 03:29:42;;;;;;;29.35;12.90;;;;;;;;;;4972786;28;20089;-79
2022/10/30 03:32:09;;;;;;;24.52;12.65;;;;;;;;;;4977348;28;20042;-78
2022/10/30 03:34:35;;;;;;;24.90;12.60;;;;;;;;;;4975819;28;20031;-79
2022/10/30 03:37:01;;;;;;;28.92;12.95;;;;;;;;;;4976332;28;20037;-79
2022/10/30 03:39:27;;;;;;;21.17;11.23;;;;;;;;;;4972154;28;20031;-78
2022/10/30 03:41:53;;;;;;;23.20;11.95;;;;;;;;;;4970378;28;20031;-78
2022/10/30 03:44:19;;;;;;;24.38;12.60;;;;;;;;;;4964007;28;20023;-78
2022/10/30 03:46:45;;;;;;;20.13;10.88;;;;;;;;;;4978761;28;20027;-78
2022/10/30 03:49:11;;;;;;;21.10;10.90;;;;;;;;;;4961848;28;20055;-78
2022/10/30 03:51:37;;;;;;;20.73;10.27;;;;;;;;;;4965633;28;20102;-78
2022/10/30 03:54:03;;;;;;;21.95;10.98;;;;;;;;;;4973050;28;20074;-78
2022/10/30 03:56:29;;;;;;;21.40;10.68;;;;;;;;;;4974586;28;20031;-78
2022/10/30 03:58:55;;;;;;;18.75;9.73;;;;;;;;;;4971553;28;20545;-78
2022/10/30 04:01:21;;;;;;;17.90;9.68;;;;;;;;;;4970025;28;20031;-78
2022/10/30 04:03:47;;;;;;;20.00;10.30;;;;;;;;;;4975391;28;20118;-78
2022/10/30 04:06:13;;;;;;;19.17;10.57;;;;;;;;;;4968364;28;20455;-78
2022/10/30 04:08:39;;;;;;;18.42;9.35;;;;;;;;;;4956940;28;20487;-78
2022/10/30 04:11:05;;;;;;;20.58;9.82;;;;;;;;;;4965909;28;20086;-78
2022/10/30 04:13:31;;;;;;;24.73;10.57;;;;;;;;;;4956856;29;20035;-77
2022/10/30 04:15:57;;;;;;;21.33;10.68;;;;;;;;;;4960820;28;20033;-78
2022/10/30 04:18:24;;;;;;;20.40;10.02;;;;;;;;;;4973968;28;20101;-78
2022/10/30 04:20:50;;;;;;;18.60;9.90;;;;;;;;;;4972407;28;20076;-78
2022/10/30 04:23:17;;;;;;;21.40;10.70;;;;;;;;;;4975213;28;20045;-78
2022/10/30 04:25:43;;;;;;;20.33;9.95;;;;;;;;;;4977986;28;20399;-79
2022/10/30 04:28:09;;;;;;;20.30;10.70;;;;;;;;;;4979488;28;20114;-79
2022/10/30 04:30:37;;;;;;;20.90;10.15;;;;;;;;;;4972906;28;20054;-78
2022/10/30 04:33:04;;;;;;;21.30;10.65;;;;;;;;;;4971222;28;20096;-79
2022/10/30 04:35:31;;;;;;;20.90;10.55;;;;;;;;;;4968415;28;20119;-80
2022/10/30 04:37:58;;;;;;;19.13;9.60;;;;;;;;;;4964490;28;20400;-79
2022/10/30 04:40:25;;;;;;;19.48;9.65;;;;;;;;;;4979936;28;20399;-80
2022/10/30 04:42:51;;;;;;;15.30;8.45;;;;;;;;;;4979942;28;20033;-79
2022/10/30 04:45:18;;;;;;;17.52;8.73;;;;;;;;;;4971850;28;20027;-79
2022/10/30 04:47:44;;;;;;;18.83;9.88;;;;;;;;;;4966468;28;20015;-79
2022/10/30 04:50:10;;;;;;;18.02;9.75;;;;;;;;;;4975935;28;20034;-79
2022/10/30 04:52:36;;;;;;;20.15;10.63;;;;;;;;;;4967532;28;20460;-79
2022/10/30 04:55:02;;;;;;;19.70;10.25;;;;;;;;;;4977362;28;20051;-79
2022/10/30 04:57:30;;;;;;;21.83;9.93;;;;;;;;;;4973428;28;20031;-79
2022/10/30 04:59:56;;;;;;;19.33;10.02;;;;;;;;;;4976873;28;20038;-79
2022/10/30 05:02:22;;;;;;;18.02;9.25;;;;;;;;;;4969985;28;20054;-78
2022/10/30 05:04:48;;;;;;;18.08;9.20;;;;;;;;;;4975964;28;20078;-78
2022/10/30 05:07:14;;;;;;;19.92;10.02;;;;;;;;;;4969419;28;20132;-79
2022/10/30 05:09:40;;;;;;;18.17;9.23;;;;;;;;;;4973487;28;20428;-77
2022/10/30 05:12:06;;;;;;;17.60;8.90;;;;;;;;;;4967449;28;20495;-77
2022/10/30 05:14:33;;;;;;;20.33;10.65;;;;;;;;;;4972357;28;20414;-77
2022/10/30 05:16:59;;;;;;;19.52;9.27;;;;;;;;;;4961154;28;20058;-77
2022/10/30 05:19:25;;;;;;;18.45;9.60;;;;;;;;;;4972395;28;20031;-77
2022/10/30 05:21:51;;;;;;;21.88;10.13;;;;;;;;;;4966242;28;20036;-77
2022/10/30 05:24:18;;;;;;;19.85;9.20;;;;;;;;;;4963005;28;20471;-77
2022/10/30 05:26:45;;;;;;;18.15;8.45;;;;;;;;;;4976117;28;20030;-78
2022/10/30 05:29:10;;;;;;;17.50;9.18;;;;;;;;;;4964384;28;20027;-77
2022/10/30 05:31:36;;;;;;;16.50;9.02;;;;;;;;;;4962677;28;20460;-78
2022/10/30 05:34:02;;;;;;;16.48;9.30;;;;;;;;;;4974398;28;20030;-78
2022/10/30 05:36:28;;;;;;;18.25;8.82;;;;;;;;;;4974462;28;20719;-78
2022/10/30 05:38:54;;;;;;;16.25;8.88;;;;;;;;;;4971044;28;20027;-77
2022/10/30 05:41:20;;;;;;;13.60;7.95;;;;;;;;;;4966976;28;20035;-79
2022/10/30 05:43:46;;;;;;;19.17;9.13;;;;;;;;;;4962882;28;20096;-79
2022/10/30 05:46:12;;;;;;;19.70;8.55;;;;;;;;;;4977559;28;20031;-79
2022/10/30 05:48:38;;;;;;;18.02;8.45;;;;;;;;;;4972136;28;20034;-78
2022/10/30 05:51:05;;;;;;;16.52;8.82;;;;;;;;;;4976374;28;20034;-79
2022/10/30 05:53:31;;;;;;;16.42;8.32;;;;;;;;;;4977240;28;20052;-79
2022/10/30 05:55:57;;;;;;;17.02;8.30;;;;;;;;;;4959304;28;20035;-79
2022/10/30 05:58:23;;;;;;;15.93;8.13;;;;;;;;;;4967701;28;20490;-78
2022/10/30 06:00:49;;;;;;;18.58;8.68;;;;;;;;;;4972638;28;20029;-78
2022/10/30 06:03:15;;;;;;;16.20;8.25;;;;;;;;;;4975088;28;20046;-78
2022/10/30 06:05:44;;;;;;;16.65;8.00;;;;;;;;;;4976784;28;20487;-79
2022/10/30 06:08:10;;;;;;;16.33;7.68;;;;;;;;;;4975263;28;20089;-77
2022/10/30 06:10:36;;;;;;;17.05;8.57;;;;;;;;;;4970332;28;20070;-78
2022/10/30 06:13:03;;;;;;;18.17;8.32;;;;;;;;;;4973682;28;20351;-78
2022/10/30 06:15:29;;;;;;;17.08;8.88;;;;;;;;;;4973065;28;20031;-79
2022/10/30 06:17:56;;;;;;;16.48;9.15;;;;;;;;;;4976796;28;20053;-79
2022/10/30 06:20:23;;;;;;;16.60;8.35;;;;;;;;;;4977371;28;20039;-79
2022/10/30 06:23:05;;;;;;;18.13;8.65;;;;;;;;;;4975929;28;20089;-78
2022/10/30 06:25:32;;;;;;;14.23;7.97;;;;;;;;;;4973895;28;20033;-79
2022/10/30 06:27:58;;;;;;;16.25;8.73;;;;;;;;;;4976235;28;20030;-78
2022/10/30 06:30:25;;;;;;;17.10;8.20;;;;;;;;;;4975771;28;20106;-78
2022/10/30 06:33:00;;;;;;;16.42;7.43;;;;;;;;;;4973790;28;20475;-78
2022/10/30 06:35:27;;;;;;;18.38;8.40;;;;;;;;;;4969895;28;20097;-78
2022/10/30 06:37:55;;;;;;;19.05;9.25;;;;;;;;;;4975864;28;20395;-79
2022/10/30 06:40:21;;;;;;;20.83;9.35;;;;;;;;;;4975452;28;20026;-79
2022/10/30 06:42:48;;;;;;;17.40;8.73;;;;;;;;;;4975061;28;20031;-77
2022/10/30 06:45:14;;;;;;;18.48;8.93;;;;;;;;;;4970563;28;20050;-78
2022/10/30 06:47:41;;;;;;;24.27;9.05;;;;;;;;;;4971761;28;20081;-79
2022/10/30 06:50:08;;;;;;;21.80;11.07;;;;;;;;;;4969881;28;20199;-79
2022/10/30 06:52:34;;;;;;;21.63;13.35;;;;;;;;;;4973710;28;20126;-78
2022/10/30 06:55:00;;;;;;;27.77;17.55;;;;;;;;;;4975868;28;20023;-78
2022/10/30 06:57:26;;;;;;;21.00;12.18;;;;;;;;;;4975277;28;20030;-77
2022/10/30 06:59:52;;;;;;;17.17;9.25;;;;;;;;;;4970392;28;20402;-75
2022/10/30 07:02:18;;;;;;;21.20;11.30;;;;;;;;;;4971359;28;20029;-75
2022/10/30 07:04:44;;;;;;;24.30;9.75;;;;;;;;;;4970878;28;20113;-76
2022/10/30 07:07:10;;;;;;;16.52;8.75;;;;;;;;;;4971501;28;20022;-76
2022/10/30 07:09:36;;;;;;;22.17;9.82;;;;;;;;;;4970665;28;20035;-76
2022/10/30 07:12:03;;;;;;;21.38;10.05;;;;;;;;;;4971369;28;20540;-76
2022/10/30 07:14:29;;;;;;;19.40;9.90;;;;;;;;;;4971922;28;20557;-76
2022/10/30 07:16:55;;;;;;;18.17;9.68;;;;;;;;;;4971046;28;20213;-76
2022/10/30 07:19:21;;;;;;;19.17;9.98;;;;;;;;;;4970957;28;20037;-76
2022/10/30 07:21:47;;;;;;;21.45;10.02;;;;;;;;;;4966109;28;20060;-76
2022/10/30 07:24:13;;;;;;;20.23;10.13;;;;;;;;;;4971572;28;20179;-74
2022/10/30 07:26:39;;;;;;;18.65;10.00;;;;;;;;;;4968237;28;20026;-76
2022/10/30 07:29:05;;;;;;;18.90;9.27;;;;;;;;;;4970461;28;20114;-76
2022/10/30 07:31:31;;;;;;;19.60;10.32;;;;;;;;;;4973447;28;20109;-76
2022/10/30 07:33:57;;;;;;;16.83;9.43;;;;;;;;;;4975018;28;20038;-77
2022/10/30 07:36:23;;;;;;;18.85;9.98;;;;;;;;;;4975177;28;20041;-76
2022/10/30 07:38:50;;;;;;;18.02;9.52;;;;;;;;;;4973568;28;20031;-76
2022/10/30 07:41:19;;;;;;;18.88;9.55;;;;;;;;;;4972366;28;20570;-76
2022/10/30 07:43:46;;;;;;;20.17;9.02;;;;;;;;;;4973163;28;20027;-75
2022/10/30 07:46:12;;;;;;;17.00;9.13;;;;;;;;;;4973339;28;20132;-76
2022/10/30 07:48:38;;;;;;;18.15;9.80;;;;;;;;;;4978019;28;20066;-76
2022/10/30 07:51:04;;;;;;;18.15;8.75;;;;;;;;;;4974054;28;20061;-75
2022/10/30 07:53:31;;;;;;;19.05;9.27;;;;;;;;;;4974849;28;20390;-76
2022/10/30 07:55:57;;;;;;;22.55;10.27;;;;;;;;;;4974038;28;20046;-76
2022/10/30 07:58:23;;;;;;;20.20;10.05;;;;;;;;;;4972104;28;20069;-76
2022/10/30 08:00:49;;;;;;;18.00;9.80;;;;;;;;;;4966116;28;20043;-77
2022/10/30 08:03:15;;;;;;;22.65;10.05;;;;;;;;;;4973242;28;20026;-77
2022/10/30 08:05:41;;;;;;;19.95;10.68;;;;;;;;;;4974882;28;20022;-77
2022/10/30 08:08:07;;;;;;;22.77;11.30;;;;;;;;;;4972221;28;20089;-77
2022/10/30 08:10:34;;;;;;;29.35;15.55;;;;;;;;;;4973730;28;20026;-76
2022/10/30 08:13:00;;;;;;;53.70;26.70;;;;;;;;;;4975255;28;20355;-77
2022/10/30 08:15:26;;;;;;;48.42;21.13;;;;;;;;;;4975004;28;20488;-77
2022/10/30 08:17:52;;;;;;;33.67;14.75;;;;;;;;;;4974388;28;20038;-76
2022/10/30 08:20:19;;;;;;;39.40;19.45;;;;;;;;;;4974673;28;20047;-77
2022/10/30 08:22:49;;;;;;;47.08;20.10;;;;;;;;;;4975109;28;20054;-77
2022/10/30 08:25:16;;;;;;;27.15;12.70;;;;;;;;;;4979666;28;20027;-78
2022/10/30 08:27:54;;;;;;;25.25;12.70;;;;;;;;;;4980828;28;20063;-78
2022/10/30 08:30:20;;;;;;;22.17;11.02;;;;;;;;;;4980831;28;20046;-78
2022/10/30 08:32:46;;;;;;;26.98;12.48;;;;;;;;;;4980405;28;20089;-78
2022/10/30 08:35:12;;;;;;;24.27;12.23;;;;;;;;;;4980987;28;20026;-79
2022/10/30 08:37:39;;;;;;;21.90;11.48;;;;;;;;;;4980856;28;20061;-78
2022/10/30 08:40:05;;;;;;;24.90;11.88;;;;;;;;;;4979822;28;20058;-78
2022/10/30 08:42:31;;;;;;;27.23;13.02;;;;;;;;;;4980183;28;20062;-78
2022/10/30 08:44:57;;;;;;;25.67;12.38;;;;;;;;;;4979932;28;20038;-77
2022/10/30 08:47:23;;;;;;;24.05;12.15;;;;;;;;;;4978387;28;20495;-78
2022/10/30 08:49:49;;;;;;;26.27;12.25;;;;;;;;;;4975085;28;20034;-78
2022/10/30 08:52:15;;;;;;;27.75;13.60;;;;;;;;;;4975651;28;20023;-78
2022/10/30 08:54:41;;;;;;;27.45;12.60;;;;;;;;;;4974131;28;20403;-78
2022/10/30 08:57:07;;;;;;;29.08;14.18;;;;;;;;;;4974603;28;20035;-78
2022/10/30 08:59:33;;;;;;;29.67;13.73;;;;;;;;;;4973684;28;20604;-76
2022/10/30 09:01:59;;;;;;;27.73;13.32;;;;;;;;;;4974204;28;20026;-77
2022/10/30 09:04:25;;;;;;;26.65;12.50;;;;;;;;;;4974234;28;20045;-77
2022/10/30 09:06:51;;;;;;;26.50;12.98;;;;;;;;;;4973624;28;20023;-77
2022/10/30 09:09:17;;;;;;;25.63;12.93;;;;;;;;;;4972890;28;20019;-77
2022/10/30 09:11:43;;;;;;;23.75;12.38;;;;;;;;;;4973864;28;20041;-77
2022/10/30 09:14:09;;;;;;;21.77;11.25;;;;;;;;;;4974075;28;20046;-77
2022/10/30 09:16:35;;;;;;;24.23;11.68;;;;;;;;;;4973533;28;20082;-77
2022/10/30 09:19:01;;;;;;;21.23;11.00;;;;;;;;;;4973965;28;20110;-77
2022/10/30 09:21:27;;;;;;;22.52;10.60;;;;;;;;;;4973738;28;20052;-77
2022/10/30 09:23:53;;;;;;;22.83;12.20;;;;;;;;;;4973763;28;20030;-77
2022/10/30 09:26:19;;;;;;;23.10;12.27;;;;;;;;;;4973196;28;20023;-77
2022/10/30 09:28:46;;;;;;;20.60;10.35;;;;;;;;;;4973300;28;20030;-77
2022/10/30 09:31:12;;;;;;;23.90;12.45;;;;;;;;;;4973477;28;20030;-77
2022/10/30 09:33:38;;;;;;;20.70;11.23;;;;;;;;;;4973264;28;20023;-77
2022/10/30 09:36:04;;;;;;;25.42;15.15;;;;;;;;;;4973543;28;20038;-77
2022/10/30 09:38:30;;;;;;;23.75;12.85;;;;;;;;;;4973183;28;20033;-77
2022/10/30 09:41:10;;;;;;;26.30;14.27;;;;;;;;;;4973097;28;20086;-77
2022/10/30 09:43:59;;;;;;;24.20;15.70;;;;;;;;;;4973468;28;20027;-77
2022/10/30 09:46:31;;;;;;;24.88;18.98;;;;;;;;;;4972585;28;20023;-76
2022/10/30 09:48:57;;;;;;;24.83;18.05;;;;;;;;;;4973369;28;20080;-77
2022/10/30 09:51:23;;;;;;;19.48;11.05;;;;;;;;;;4972857;28;20102;-77
2022/10/30 09:53:55;;;;;;;16.63;9.88;;;;;;;;;;4973272;28;20493;-77
2022/10/30 09:56:31;;;;;;;16.97;10.33;;;;;;;;;;4972238;28;20045;-77
2022/10/30 09:59:12;;;;;;;18.08;10.43;;;;;;;;;;4973253;28;20274;-78
2022/10/30 10:01:42;;;;;;;17.73;9.80;;;;;;;;;;4972349;28;20042;-77
2022/10/30 10:04:30;;;;;;;17.20;10.00;;;;;;;;;;4973145;28;20031;-77
2022/10/30 10:06:57;;;;;;;16.20;9.48;;;;;;;;;;4972384;28;20030;-77
2022/10/30 10:09:24;;;;;;;18.40;10.82;;;;;;;;;;4972761;28;20109;-76
2022/10/30 10:11:59;;;;;;;19.67;12.70;;;;;;;;;;4973110;28;20023;-76
2022/10/30 10:14:34;;;;;;;19.20;10.50;;;;;;;;;;4971752;28;20162;-76
2022/10/30 10:17:02;;;;;;;22.27;11.73;;;;;;;;;;4972309;28;20435;-76
2022/10/30 10:19:44;;;;;;;22.65;11.77;;;;;;;;;;4972964;28;20030;-76
2022/10/30 10:22:19;;;;;;;21.98;11.73;;;;;;;;;;4972728;28;20129;-76
2022/10/30 10:24:46;;;;;;;21.67;11.68;;;;;;;;;;4972995;28;20027;-77
2022/10/30 10:27:21;;;;;;;19.58;11.80;;;;;;;;;;4972394;28;20026;-76
2022/10/30 10:29:53;;;;;;;17.50;11.02;;;;;;;;;;4972985;28;20114;-76
2022/10/30 10:32:25;;;;;;;19.02;11.00;;;;;;;;;;4972716;28;20027;-76
2022/10/30 10:35:01;;;;;;;21.90;12.30;;;;;;;;;;4971518;28;20037;-76
2022/10/30 10:37:30;;;;;;;24.73;13.20;;;;;;;;;;4970439;28;20034;-77
2022/10/30 10:40:10;;;;;;;23.65;12.88;;;;;;;;;;4972584;28;20081;-77
2022/10/30 10:42:48;;;;;;;25.20;14.02;;;;;;;;;;4972512;28;20498;-77
2022/10/30 10:45:14;;;;;;;23.23;13.60;;;;;;;;;;4971840;28;20042;-77
2022/10/30 10:47:46;;;;;;;28.83;14.70;;;;;;;;;;4971688;28;20383;-77
2022/10/30 10:50:19;;;;;;;24.23;13.68;;;;;;;;;;4971308;28;20031;-77
2022/10/30 10:52:45;;;;;;;;;;;;;;;;;;4971627;28;20027;-77
2022/10/30 10:55:16;;;;;;;30.38;15.50;;;;;;;;;;4971976;28;20373;-77
2022/10/30 10:57:43;;;;;;;34.33;17.60;;;;;;;;;;4972073;28;20062;-77
2022/10/30 11:00:15;;;;;;;34.28;18.35;;;;;;;;;;4972391;28;20031;-77
2022/10/30 11:02:54;;;;;;;33.15;17.27;;;;;;;;;;4972535;28;20097;-77
2022/10/30 11:05:33;;;;;;;34.40;18.13;;;;;;;;;;4976158;28;20078;-77
2022/10/30 11:08:04;;;;;;;35.30;17.25;;;;;;;;;;4978528;28;20110;-78
2022/10/30 11:10:30;;;;;;;36.92;17.02;;;;;;;;;;4980194;28;20027;-77
2022/10/30 11:12:55;;;;;;;39.08;18.98;;;;;;;;;;4978474;28;20089;-78
2022/10/30 11:15:27;;;;;;;41.28;20.50;;;;;;;;;;4978813;28;20038;-78
2022/10/30 11:18:07;;;;;;;42.05;19.83;;;;;;;;;;4976656;28;20552;-78
2022/10/30 11:20:51;;;;;;;36.88;18.75;;;;;;;;;;4976021;28;20118;-77
2022/10/30 11:23:37;;;;;;;42.72;19.75;;;;;;;;;;4975895;28;20034;-77
2022/10/30 11:26:03;;;;;;;46.08;21.33;;;;;;;;;;4976570;28;20481;-78
2022/10/30 11:28:49;;;;;;;47.08;22.08;;;;;;;;;;4976367;28;20422;-77
2022/10/30 11:31:19;;;;;;;52.50;23.05;;;;;;;;;;4974778;28;20085;-77
2022/10/30 11:33:46;;;;;;;47.95;24.23;;;;;;;;;;4976601;28;20023;-78
2022/10/30 11:36:14;;;;;;;52.75;25.20;;;;;;;;;;4977805;28;20022;-78
2022/10/30 11:38:40;;;;;;;51.90;23.55;;;;;;;;;;4976833;28;20383;-77
2022/10/30 11:41:09;;;;;;;48.97;23.30;;;;;;;;;;4976174;28;20122;-77
2022/10/30 11:43:36;;;;;;;49.50;24.63;;;;;;;;;;4976084;28;20457;-77
2022/10/30 11:46:07;;;;;;;58.35;24.45;;;;;;;;;;4977218;28;20118;-77
2022/10/30 11:48:34;;;;;;;56.70;24.05;;;;;;;;;;4977596;28;20432;-78
2022/10/30 11:51:01;;;;;;;53.97;24.83;;;;;;;;;;4975988;28;20027;-77
2022/10/30 11:53:30;;;;;;;58.90;26.27;;;;;;;;;;4977249;28;20042;-77
2022/10/30 11:55:56;;;;;;;57.53;25.80;;;;;;;;;;4976860;28;20026;-77
2022/10/30 11:58:26;;;;;;;59.22;25.20;;;;;;;;;;4975530;28;20030;-78
2022/10/30 12:01:00;;;;;;;51.28;24.25;;;;;;;;;;4974886;28;20412;-78
2022/10/30 12:03:33;;;;;;;49.80;23.10;;;;;;;;;;4976249;28;20105;-77
2022/10/30 12:06:07;;;;;;;51.13;23.77;;;;;;;;;;4979833;28;20021;-77
2022/10/30 12:08:33;;;;;;;51.03;24.85;;;;;;;;;;4978205;28;20034;-78
2022/10/30 12:11:00;;;;;;;55.22;25.30;;;;;;;;;;4977292;28;20027;-77
2022/10/30 12:13:27;;;;;;;45.22;23.25;;;;;;;;;;4979157;28;20450;-79
2022/10/30 12:16:07;;;;;;;52.97;25.67;;;;;;;;;;4980357;28;20510;-79
2022/10/30 12:18:33;;;;;;;55.88;26.20;;;;;;;;;;4980809;28;20109;-79
2022/10/30 12:20:59;;;;;;;55.85;26.08;;;;;;;;;;4980505;28;20066;-79
2022/10/30 12:23:26;;;;;;;58.10;26.80;;;;;;;;;;4980221;28;20086;-78
2022/10/30 12:25:54;;;;;;;54.40;24.33;;;;;;;;;;4981315;28;20085;-78
2022/10/30 12:28:20;;;;;;;52.72;24.27;;;;;;;;;;4980872;28;20026;-79
2022/10/30 12:30:55;;;;;;;57.28;25.83;;;;;;;;;;4980001;28;20046;-77
2022/10/30 12:33:26;;;;;;;57.53;25.48;;;;;;;;;;4978869;28;20493;-79
2022/10/30 12:35:57;;;;;;;62.08;26.77;;;;;;;;;;4981247;28;20023;-79
2022/10/30 12:38:42;;;;;;;67.35;26.95;;;;;;;;;;4979879;28;20031;-79
2022/10/30 12:41:34;;;;;;;56.17;24.48;;;;;;;;;;4979822;28;20035;-79
2022/10/30 12:44:18;;;;;;;53.10;23.85;;;;;;;;;;4959321;29;20051;-79
2022/10/30 12:46:47;;;;;;;53.92;23.95;;;;;;;;;;4958133;29;20558;-78
2022/10/30 12:49:13;;;;;;;66.65;25.85;;;;;;;;;;4956748;29;20040;-78
2022/10/30 12:51:47;;;;;;;64.03;26.98;;;;;;;;;;4956916;29;20035;-78
2022/10/30 12:54:25;;;;;;;68.78;28.08;;;;;;;;;;4939769;29;20107;-78
2022/10/30 12:56:56;;;;;;;62.38;26.77;;;;;;;;;;4957371;29;20039;-78
2022/10/30 12:59:40;;;;;;;61.83;25.50;;;;;;;;;;4958364;29;20126;-78
2022/10/30 13:02:12;;;;;;;67.78;27.00;;;;;;;;;;4957642;29;20727;-79
2022/10/30 13:04:41;;;;;;;69.50;27.45;;;;;;;;;;4956804;29;20034;-78
2022/10/30 13:07:26;;;;;;;66.32;26.85;;;;;;;;;;4940903;29;20031;-77
2022/10/30 13:09:58;;;;;;;62.10;27.05;;;;;;;;;;4940689;29;20033;-78
2022/10/30 13:12:31;;;;;;;65.97;26.42;;;;;;;;;;4957558;29;20066;-78
2022/10/30 13:15:15;;;;;;;53.80;24.30;;;;;;;;;;4957601;29;20570;-81
2022/10/30 13:17:41;;;;;;;61.40;24.58;;;;;;;;;;4957746;29;20071;-78
2022/10/30 13:20:12;;;;;;;61.85;26.90;;;;;;;;;;4961216;28;20067;-78
2022/10/30 13:22:58;;;;;;;60.30;27.08;;;;;;;;;;4958257;28;20039;-78
2022/10/30 13:25:38;;;;;;;60.58;25.67;;;;;;;;;;4954393;28;20050;-80
2022/10/30 13:28:17;;;;;;;58.05;24.48;;;;;;;;;;4977200;28;20027;-79
2022/10/30 13:30:48;;;;;;;61.15;24.67;;;;;;;;;;4977344;28;20030;-79
2022/10/30 13:33:20;;;;;;;63.92;25.27;;;;;;;;;;4978718;28;20671;-78
2022/10/30 13:35:52;;;;;;;68.00;25.95;;;;;;;;;;4977783;28;20026;-78
2022/10/30 13:38:18;;;;;;;75.63;26.98;;;;;;;;;;4972493;28;20514;-77
2022/10/30 13:40:49;;;;;;;64.72;25.63;;;;;;;;;;4973313;28;20027;-77
2022/10/30 13:43:24;;;;;;;66.80;26.98;;;;;;;;;;4973291;28;20032;-77
2022/10/30 13:46:08;;;;;;;65.63;26.08;;;;;;;;;;4973605;28;20435;-76
2022/10/30 13:48:37;;;;;;;67.13;26.83;;;;;;;;;;4972917;28;20410;-77
2022/10/30 13:51:22;;;;;;;69.80;27.15;;;;;;;;;;4973417;28;20054;-77
2022/10/30 13:53:53;;;;;;;66.60;26.63;;;;;;;;;;4972618;28;20030;-77
2022/10/30 13:56:21;;;;;;;63.00;26.35;;;;;;;;;;4973312;28;20034;-77
2022/10/30 13:58:55;;;;;;;75.97;29.70;;;;;;;;;;4972969;28;20035;-77
2022/10/30 14:01:21;;;;;;;76.03;30.02;;;;;;;;;;4972150;28;20023;-77
2022/10/30 14:03:47;;;;;;;72.15;28.55;;;;;;;;;;4972993;28;20391;-77
2022/10/30 14:06:25;;;;;;;70.32;27.80;;;;;;;;;;4973169;28;20067;-77
2022/10/30 14:09:14;;;;;;;66.22;28.08;;;;;;;;;;4973012;28;20022;-77
2022/10/30 14:11:40;;;;;;;61.92;26.90;;;;;;;;;;4963996;28;20035;-77
2022/10/30 14:14:12;;;;;;;67.05;27.30;;;;;;;;;;4975618;28;20031;-78
2022/10/30 14:16:40;;;;;;;61.63;28.33;;;;;;;;;;4977009;28;20085;-77
2022/10/30 14:19:07;;;;;;;64.78;26.40;;;;;;;;;;4976310;28;20130;-77
2022/10/30 14:21:46;;;;;;;57.33;25.80;;;;;;;;;;4976134;28;20054;-78
2022/10/30 14:24:12;;;;;;;56.08;26.67;;;;;;;;;;4977913;28;20022;-78
2022/10/30 14:26:40;;;;;;;61.88;25.63;;;;;;;;;;4977682;28;20023;-77
2022/10/30 14:29:30;;;;;;;62.45;25.80;;;;;;;;;;4976332;28;20046;-78
2022/10/30 14:31:56;;;;;;;54.10;26.45;;;;;;;;;;4976378;28;20292;-78